East Calder, United Kingdom
Current Conditions -  °F | °C
As of 12:50 PM on Thursday 27 Nov 2014 (Local Time) from EGPH Reporting Station
Light Rain Light Rain  
Wind Chill: 44°   Ceiling: 1700
Heat Index: 46°   Visibility: 6mi
Dew Point: 45°   Wind: 6mph
Humidity: 93%   Direction: 90°E
Pressure: 29.59"   Gusts: NA
Location:  55.89°N, 3.46°W
Report Text: EGPH 271250Z 09005KT 050V120 9000 -RA BKN017 08/07 Q1002
Loading
Personal Weather Stations






























Interactive Weather Map New forecast layout! Learn more

10-Day Weather Forecast

Advertisements
Track Severe Weather on mobile